Time;durP1;ratioP1;P1;durP2;ratioP2;P2;SDS_P1;SDS_P2;PMS_P1;PMS_P2;Temp;Humidity;BMP_temperature;BMP_pressure;BME280_temperature;BME280_humidity;BME280_pressure;Samples;Min_cycle;Max_cycle;Signal;HPM_P1;HPM_P2
2023/05/08 00:02:11;;;;;;;12.15;9.05;;;8.60;99.90;;;;;;5073873;28;20228;-74
2023/05/08 00:05:02;;;;;;;15.13;10.07;;;8.50;99.90;;;;;;5083459;28;20275;-73
2023/05/08 00:07:52;;;;;;;13.73;9.73;;;8.40;99.90;;;;;;5081061;28;20211;-73
2023/05/08 00:10:41;;;;;;;13.47;9.77;;;8.40;99.90;;;;;;5078261;28;20582;-73
2023/05/08 00:13:30;;;;;;;15.10;9.80;;;8.50;99.90;;;;;;5077773;28;20857;-73
2023/05/08 00:16:18;;;;;;;13.68;9.43;;;8.50;99.90;;;;;;5087498;28;20699;-73
2023/05/08 00:19:07;;;;;;;12.23;9.00;;;8.50;99.90;;;;;;5081091;28;20215;-75
2023/05/08 00:21:57;;;;;;;14.60;8.77;;;8.60;99.90;;;;;;5077392;28;20231;-72
2023/05/08 00:24:46;;;;;;;13.77;9.27;;;8.60;99.90;;;;;;5077502;28;20216;-72
2023/05/08 00:27:35;;;;;;;13.90;9.10;;;8.60;99.90;;;;;;5066882;28;20228;-73
2023/05/08 00:30:24;;;;;;;14.00;9.30;;;8.50;99.90;;;;;;5074170;28;20235;-72
2023/05/08 00:33:13;;;;;;;12.27;8.40;;;8.40;99.90;;;;;;5070513;28;20823;-73
2023/05/08 00:36:02;;;;;;;12.13;7.57;;;8.60;99.90;;;;;;5081312;28;20223;-73
2023/05/08 00:38:53;;;;;;;13.37;8.50;;;8.60;99.90;;;;;;5073829;28;20365;-73
2023/05/08 00:41:42;;;;;;;12.95;8.63;;;8.70;99.90;;;;;;5077653;28;20220;-73
2023/05/08 00:44:31;;;;;;;13.93;8.70;;;8.40;99.90;;;;;;5077166;28;20235;-73
2023/05/08 00:47:21;;;;;;;9.47;7.63;;;8.40;99.90;;;;;;5076934;28;20223;-74
2023/05/08 00:50:11;;;;;;;12.37;8.17;;;8.30;99.90;;;;;;5074287;28;20272;-73
2023/05/08 00:53:02;;;;;;;13.45;9.52;;;8.30;99.90;;;;;;5075982;28;20765;-73
2023/05/08 00:55:54;;;;;;;15.00;9.60;;;8.30;99.90;;;;;;5075778;28;20257;-72
2023/05/08 00:58:44;;;;;;;15.77;10.10;;;8.30;99.90;;;;;;5068805;28;20263;-72
2023/05/08 01:01:35;;;;;;;13.17;10.20;;;8.40;99.90;;;;;;5090171;28;20364;-71
2023/05/08 01:04:26;;;;;;;20.98;11.20;;;8.30;99.90;;;;;;5076547;28;20263;-75
2023/05/08 01:07:15;;;;;;;16.23;10.80;;;8.40;99.90;;;;;;5079220;28;20265;-72
2023/05/08 01:10:04;;;;;;;17.50;10.87;;;8.30;99.90;;;;;;5073745;28;20318;-71
2023/05/08 01:13:06;;;;;;;15.50;10.17;;;8.30;99.90;;;;;;5079560;28;20223;-72
2023/05/08 01:15:59;;;;;;;14.20;10.60;;;8.20;99.90;;;;;;5070026;28;20255;-72
2023/05/08 01:18:53;;;;;;;14.27;9.80;;;8.10;99.90;;;;;;5082585;28;20216;-72
2023/05/08 01:21:47;;;;;;;16.60;11.13;;;7.90;99.90;;;;;;5086109;28;20590;-74
2023/05/08 01:25:11;;;;;;;13.97;10.43;;;8.00;99.90;;;;;;5081532;28;20335;-72
2023/05/08 01:28:21;;;;;;;14.03;9.70;;;8.00;99.90;;;;;;5071885;28;20332;-73
2023/05/08 01:31:20;;;;;;;10.53;7.67;;;8.00;99.90;;;;;;5074632;28;20218;-72
2023/05/08 01:34:15;;;;;;;11.63;7.90;;;8.00;99.90;;;;;;5071980;28;20380;-72
2023/05/08 01:37:08;;;;;;;11.57;6.97;;;8.00;99.90;;;;;;5084453;28;20262;-71
2023/05/08 01:40:08;;;;;;;11.87;6.87;;;8.00;99.90;;;;;;5070126;28;20233;-71
2023/05/08 01:43:13;;;;;;;9.53;7.20;;;8.00;99.90;;;;;;5071756;28;20709;-71
2023/05/08 01:46:06;;;;;;;9.53;6.33;;;8.00;99.90;;;;;;5071347;28;20238;-72
2023/05/08 01:49:00;;;;;;;10.13;6.57;;;8.00;99.90;;;;;;5064866;28;20263;-69
2023/05/08 01:51:58;;;;;;;9.37;6.30;;;8.10;99.90;;;;;;5075312;28;20233;-70
2023/05/08 01:54:56;;;;;;;8.90;6.20;;;8.10;99.90;;;;;;5075139;28;20227;-70
2023/05/08 01:57:50;;;;;;;7.90;6.07;;;8.10;99.90;;;;;;5067461;28;20231;-70
2023/05/08 02:00:41;;;;;;;8.33;5.73;;;8.20;99.90;;;;;;5071109;28;20374;-70
2023/05/08 02:03:32;;;;;;;8.57;6.10;;;8.10;99.90;;;;;;5080059;28;20329;-72
2023/05/08 02:06:22;;;;;;;6.90;5.60;;;8.20;99.90;;;;;;5078090;28;20230;-72
2023/05/08 02:09:13;;;;;;;10.37;5.80;;;8.20;99.90;;;;;;5073505;28;20246;-72
2023/05/08 02:12:03;;;;;;;7.50;5.53;;;8.20;99.90;;;;;;5077361;28;20232;-71
2023/05/08 02:14:54;;;;;;;6.70;5.07;;;8.10;99.90;;;;;;5068579;28;21007;-70
2023/05/08 02:17:46;;;;;;;7.73;5.37;;;8.20;99.90;;;;;;5078948;28;20299;-70
2023/05/08 02:20:36;;;;;;;7.80;5.80;;;8.10;99.90;;;;;;5079526;28;20606;-69
2023/05/08 02:23:27;;;;;;;9.73;6.20;;;8.00;99.90;;;;;;5070052;28;20241;-71
2023/05/08 02:26:18;;;;;;;10.37;6.50;;;8.10;99.90;;;;;;5074782;28;20223;-70
2023/05/08 02:29:07;;;;;;;9.60;6.27;;;8.10;99.90;;;;;;5077920;28;20251;-71
2023/05/08 02:31:57;;;;;;;10.37;6.63;;;8.00;99.90;;;;;;5068864;28;20253;-71
2023/05/08 02:34:48;;;;;;;9.23;6.77;;;8.00;99.90;;;;;;5070213;28;20231;-72
2023/05/08 02:37:55;;;;;;;9.27;6.33;;;7.90;99.90;;;;;;5077953;28;20227;-72
2023/05/08 02:40:47;;;;;;;9.07;6.50;;;7.90;99.90;;;;;;5070029;28;20220;-71
2023/05/08 02:43:38;;;;;;;10.93;6.43;;;7.80;99.90;;;;;;5073631;28;20697;-72
2023/05/08 02:46:34;;;;;;;9.97;6.97;;;7.70;99.90;;;;;;5079367;28;20246;-72
2023/05/08 02:49:30;;;;;;;10.63;6.60;;;7.80;99.90;;;;;;5081622;27;20222;-72
2023/05/08 02:52:27;;;;;;;8.53;6.17;;;7.80;99.90;;;;;;5084721;28;20223;-73
2023/05/08 02:55:33;;;;;;;11.60;6.00;;;7.80;99.90;;;;;;5083462;27;20227;-72
2023/05/08 02:58:29;;;;;;;6.97;5.13;;;7.90;99.90;;;;;;5091988;27;20225;-72
2023/05/08 03:01:26;;;;;;;7.67;5.70;;;7.70;99.90;;;;;;5084905;27;20265;-75
2023/05/08 03:04:28;;;;;;;10.00;6.10;;;7.70;99.90;;;;;;5076609;28;20885;-71
2023/05/08 03:07:21;;;;;;;8.73;6.03;;;7.80;99.90;;;;;;5087504;27;20843;-72
2023/05/08 03:10:14;;;;;;;8.93;6.30;;;7.80;99.90;;;;;;5081317;27;20764;-70
2023/05/08 03:13:07;;;;;;;9.30;6.50;;;7.90;99.90;;;;;;5085942;27;20706;-72
2023/05/08 03:16:02;;;;;;;12.60;8.27;;;7.80;99.90;;;;;;5079502;27;20228;-72
2023/05/08 03:18:56;;;;;;;12.50;8.30;;;7.90;99.90;;;;;;5083863;28;20231;-70
2023/05/08 03:21:49;;;;;;;11.70;8.17;;;8.00;99.90;;;;;;5080194;28;20229;-69
2023/05/08 03:24:40;;;;;;;10.90;7.90;;;8.00;99.90;;;;;;5075124;27;20219;-70
2023/05/08 03:27:30;;;;;;;11.83;8.33;;;8.00;99.90;;;;;;5084760;27;20228;-71
2023/05/08 03:30:20;;;;;;;12.13;8.87;;;8.00;99.90;;;;;;5075624;27;20314;-71
2023/05/08 03:33:21;;;;;;;14.57;8.77;;;7.80;99.90;;;;;;5080409;28;20206;-70
2023/05/08 03:36:12;;;;;;;11.63;8.80;;;8.00;99.90;;;;;;5076733;28;20376;-71
2023/05/08 03:39:02;;;;;;;12.10;8.50;;;7.90;99.90;;;;;;5106250;27;20227;-70
2023/05/08 03:41:51;;;;;;;10.13;7.80;;;7.70;99.90;;;;;;5079771;27;20223;-71
2023/05/08 03:44:42;;;;;;;12.17;8.77;;;7.70;99.90;;;;;;5082542;27;20238;-71
2023/05/08 03:47:32;;;;;;;11.27;8.00;;;7.80;99.90;;;;;;5081621;28;20226;-69
2023/05/08 03:50:21;;;;;;;10.27;7.83;;;7.90;99.90;;;;;;5078836;28;20222;-69
2023/05/08 03:53:12;;;;;;;11.37;8.17;;;8.10;99.90;;;;;;5084289;27;20233;-69
2023/05/08 03:56:02;;;;;;;10.17;7.47;;;8.20;99.90;;;;;;5084161;28;20231;-69
2023/05/08 03:59:00;;;;;;;10.57;6.97;;;8.20;99.90;;;;;;5073829;28;20761;-68
2023/05/08 04:01:55;;;;;;;11.93;6.93;;;8.30;99.90;;;;;;5066916;28;20223;-68
2023/05/08 04:04:47;;;;;;;9.60;6.47;;;8.30;99.90;;;;;;5071329;28;20322;-70
2023/05/08 04:07:46;;;;;;;10.73;7.03;;;8.40;99.90;;;;;;5080379;28;20233;-70
2023/05/08 04:10:43;;;;;;;8.50;6.40;;;8.10;99.90;;;;;;5079179;28;20236;-69
2023/05/08 04:13:34;;;;;;;7.70;6.30;;;8.50;99.90;;;;;;5081569;27;20219;-70
2023/05/08 04:16:27;;;;;;;8.63;6.33;;;8.60;99.90;;;;;;5077665;28;20365;-70
2023/05/08 04:19:22;;;;;;;10.50;6.40;;;8.70;99.90;;;;;;5073555;28;20226;-70
2023/05/08 04:22:12;;;;;;;9.20;6.33;;;8.80;99.90;;;;;;5076722;28;20267;-69
2023/05/08 04:25:04;;;;;;;10.47;6.33;;;8.90;99.90;;;;;;5077772;28;20235;-70
2023/05/08 04:27:56;;;;;;;9.13;6.17;;;8.90;99.90;;;;;;5081040;28;20237;-70
2023/05/08 04:30:46;;;;;;;8.03;5.37;;;9.00;99.90;;;;;;5077803;28;20224;-70
2023/05/08 04:33:35;;;;;;;7.97;5.40;;;9.00;99.90;;;;;;5083061;28;20733;-71
2023/05/08 04:36:28;;;;;;;5.40;4.10;;;9.10;99.90;;;;;;5084131;28;20224;-71
2023/05/08 04:39:19;;;;;;;7.03;4.93;;;9.10;99.90;;;;;;5080361;28;20760;-69
2023/05/08 04:42:08;;;;;;;6.47;4.50;;;9.10;99.90;;;;;;5074884;28;20219;-71
2023/05/08 04:44:58;;;;;;;6.00;4.57;;;9.40;99.90;;;;;;5069622;28;20334;-72
2023/05/08 04:47:47;;;;;;;5.17;4.50;;;9.50;99.90;;;;;;5076017;28;20695;-70
2023/05/08 04:50:36;;;;;;;6.07;4.25;;;9.30;99.90;;;;;;5085929;28;20246;-70
2023/05/08 04:53:25;;;;;;;4.68;3.83;;;9.40;99.90;;;;;;5084703;28;20220;-72
2023/05/08 04:56:14;;;;;;;7.47;3.60;;;9.40;99.90;;;;;;5083875;28;20222;-71
2023/05/08 04:59:03;;;;;;;7.00;3.85;;;9.50;99.90;;;;;;5079213;28;20239;-72
2023/05/08 05:01:54;;;;;;;5.63;4.30;;;9.80;99.90;;;;;;5080432;28;20224;-72
2023/05/08 05:04:43;;;;;;;7.43;4.88;;;10.60;99.90;;;;;;5074727;28;20303;-70
2023/05/08 05:07:32;;;;;;;5.88;4.25;;;10.60;99.90;;;;;;5080911;28;20301;-68
2023/05/08 05:10:21;;;;;;;8.23;4.53;;;10.60;99.90;;;;;;5076385;28;20212;-70
2023/05/08 05:13:10;;;;;;;6.05;4.35;;;10.20;99.90;;;;;;5080456;28;20227;-68
2023/05/08 05:15:59;;;;;;;6.75;4.97;;;9.80;99.90;;;;;;5102168;27;20699;-68
2023/05/08 05:18:52;;;;;;;6.88;4.82;;;9.50;99.90;;;;;;5084138;28;20275;-67
2023/05/08 05:21:41;;;;;;;7.85;4.75;;;9.80;99.90;;;;;;5077906;28;20219;-68
2023/05/08 05:24:29;;;;;;;7.15;4.78;;;10.30;99.90;;;;;;5110884;27;20248;-72
2023/05/08 05:27:18;;;;;;;8.40;4.35;;;10.30;99.90;;;;;;5080725;28;20220;-72
2023/05/08 05:30:10;;;;;;;7.30;4.65;;;10.60;99.90;;;;;;5078403;28;20319;-71
2023/05/08 05:33:02;;;;;;;4.63;4.07;;;10.60;99.90;;;;;;5081364;28;20236;-73
2023/05/08 05:35:53;;;;;;;6.22;4.85;;;10.10;99.90;;;;;;5077169;28;20212;-72
2023/05/08 05:38:42;;;;;;;5.97;4.20;;;10.50;99.90;;;;;;5081063;28;20224;-74
2023/05/08 05:41:31;;;;;;;6.47;4.10;;;10.60;99.90;;;;;;5078711;28;20216;-71
2023/05/08 05:44:20;;;;;;;5.28;3.55;;;10.60;99.90;;;;;;5083056;28;20536;-73
2023/05/08 05:47:09;;;;;;;4.35;3.47;;;10.90;99.90;;;;;;5072733;28;20219;-72
2023/05/08 05:50:01;;;;;;;4.80;3.53;;;11.00;99.90;;;;;;5075756;27;20338;-70
2023/05/08 05:52:53;;;;;;;5.88;3.72;;;10.70;99.90;;;;;;5101212;27;20214;-69
2023/05/08 05:55:42;;;;;;;4.68;3.45;;;12.00;99.90;;;;;;5076217;28;20421;-70
2023/05/08 05:58:31;;;;;;;7.30;3.40;;;12.70;99.90;;;;;;5071840;28;20246;-67
2023/05/08 06:01:20;;;;;;;5.43;3.53;;;14.80;99.90;;;;;;5073681;28;20695;-69
2023/05/08 06:04:08;;;;;;;3.25;2.83;;;16.20;99.90;;;;;;5071384;28;20252;-70
2023/05/08 06:06:57;;;;;;;4.25;2.63;;;17.60;99.90;;;;;;5099537;27;20614;-70
2023/05/08 06:09:49;;;;;;;6.13;2.55;;;15.30;99.90;;;;;;5074455;28;20668;-69
2023/05/08 06:12:39;;;;;;;4.82;2.90;;;13.90;99.90;;;;;;5100389;27;20239;-68
2023/05/08 06:15:28;;;;;;;5.35;2.58;;;13.40;99.90;;;;;;5070912;28;20709;-68
2023/05/08 06:18:17;;;;;;;4.85;2.70;;;12.30;99.90;;;;;;5073032;28;20600;-70
2023/05/08 06:21:06;;;;;;;4.68;2.60;;;12.20;99.90;;;;;;5079108;28;20227;-71
2023/05/08 06:23:55;;;;;;;3.40;2.90;;;12.00;99.90;;;;;;5081329;28;20227;-71
2023/05/08 06:26:45;;;;;;;5.80;3.30;;;11.80;99.90;;;;;;5075120;28;20346;-71
2023/05/08 06:29:34;;;;;;;4.30;3.05;;;14.20;99.90;;;;;;5080440;28;20215;-72
2023/05/08 06:32:22;;;;;;;6.00;2.67;;;16.30;99.90;;;;;;5068665;28;21587;-73
2023/05/08 06:35:12;;;;;;;4.43;2.40;;;16.20;99.90;;;;;;5075273;28;20278;-68
2023/05/08 06:38:01;;;;;;;3.65;2.60;;;14.70;99.90;;;;;;5080680;28;20698;-69
2023/05/08 06:40:50;;;;;;;5.28;2.58;;;14.20;99.90;;;;;;5078365;28;20897;-68
2023/05/08 06:43:40;;;;;;;3.50;2.47;;;13.60;99.90;;;;;;5076113;28;20228;-70
2023/05/08 06:46:29;;;;;;;2.53;1.98;;;13.20;99.90;;;;;;5077526;28;20235;-71
2023/05/08 06:49:18;;;;;;;4.63;2.15;;;12.80;99.90;;;;;;5075393;28;20223;-72
2023/05/08 06:52:07;;;;;;;3.60;2.40;;;13.30;99.90;;;;;;5083995;28;20868;-72
2023/05/08 06:54:56;;;;;;;4.50;2.53;;;12.90;99.90;;;;;;5077444;28;20241;-73
2023/05/08 06:57:45;;;;;;;5.35;2.80;;;13.30;99.90;;;;;;5073785;28;20228;-72
2023/05/08 07:00:35;;;;;;;4.40;3.10;;;13.70;99.90;;;;;;5074707;28;20220;-69
2023/05/08 07:03:24;;;;;;;4.43;3.30;;;13.50;99.90;;;;;;5072359;28;20229;-73
2023/05/08 07:06:13;;;;;;;4.95;2.75;;;13.80;99.90;;;;;;5085374;28;20306;-72
2023/05/08 07:09:02;;;;;;;7.00;2.85;;;13.70;99.90;;;;;;5074711;28;20290;-73
2023/05/08 07:11:51;;;;;;;3.25;2.42;;;14.00;99.90;;;;;;5081302;28;20761;-72
2023/05/08 07:14:39;;;;;;;4.93;2.60;;;14.30;99.90;;;;;;5081445;28;20850;-73
2023/05/08 07:17:31;;;;;;;2.92;2.20;;;14.10;99.90;;;;;;5072600;28;20900;-73
2023/05/08 07:20:20;;;;;;;4.55;2.40;;;14.80;99.90;;;;;;5076192;28;20223;-73
2023/05/08 07:23:09;;;;;;;2.95;2.40;;;15.00;99.90;;;;;;5076873;28;20235;-73
2023/05/08 07:25:58;;;;;;;4.88;2.58;;;15.30;99.90;;;;;;5068076;28;20591;-73
2023/05/08 07:28:47;;;;;;;4.18;2.75;;;15.60;99.90;;;;;;5065767;28;20327;-73
2023/05/08 07:31:39;;;;;;;3.95;2.33;;;16.10;99.90;;;;;;5046404;28;20239;-73
2023/05/08 07:34:29;;;;;;;4.55;2.45;;;16.30;99.90;;;;;;5052515;28;20281;-74
2023/05/08 07:37:19;;;;;;;4.57;2.20;;;16.40;99.90;;;;;;5078942;28;20238;-74
2023/05/08 07:40:08;;;;;;;2.72;2.20;;;16.40;99.90;;;;;;5074689;28;20244;-75
2023/05/08 07:42:57;;;;;;;3.15;2.10;;;16.80;99.10;;;;;;5069537;28;20240;-74
2023/05/08 07:45:46;;;;;;;4.18;2.42;;;15.80;99.00;;;;;;5067117;28;20216;-73
2023/05/08 07:48:35;;;;;;;3.00;2.30;;;16.40;99.90;;;;;;5064783;28;20221;-74
2023/05/08 07:51:25;;;;;;;4.35;2.20;;;16.40;97.10;;;;;;5075608;28;20732;-74
2023/05/08 07:54:14;;;;;;;5.05;2.03;;;16.70;98.10;;;;;;5069660;28;20223;-73
2023/05/08 07:57:03;;;;;;;4.60;2.42;;;17.30;98.00;;;;;;5055921;28;20231;-75
2023/05/08 07:59:52;;;;;;;2.55;1.98;;;17.30;94.80;;;;;;5065978;28;20612;-74
2023/05/08 08:02:41;;;;;;;3.35;2.55;;;16.80;94.90;;;;;;5075272;28;20347;-74
2023/05/08 08:05:30;;;;;;;2.85;2.20;;;15.90;95.50;;;;;;5067794;28;20264;-74
2023/05/08 08:08:20;;;;;;;3.45;2.58;;;15.50;96.50;;;;;;5074696;28;20321;-74
2023/05/08 08:11:09;;;;;;;5.13;2.40;;;15.30;96.20;;;;;;5068161;28;20227;-74
2023/05/08 08:13:58;;;;;;;4.50;2.42;;;15.20;97.00;;;;;;5066616;28;20317;-73
2023/05/08 08:16:47;;;;;;;3.10;2.13;;;17.10;98.30;;;;;;5067296;28;20715;-75
2023/05/08 08:19:35;;;;;;;4.25;2.58;;;17.30;95.60;;;;;;5059638;28;20224;-73
2023/05/08 08:22:25;;;;;;;2.20;2.00;;;16.50;94.10;;;;;;5047463;28;20221;-75
2023/05/08 08:25:15;;;;;;;3.75;2.17;;;16.30;94.60;;;;;;5045903;28;20225;-74
2023/05/08 08:28:04;;;;;;;4.25;2.50;;;16.50;97.10;;;;;;5066904;28;20231;-74
2023/05/08 08:30:53;;;;;;;2.90;2.30;;;16.20;94.40;;;;;;5054611;28;20255;-73
2023/05/08 08:33:42;;;;;;;3.28;2.55;;;17.80;94.80;;;;;;5065758;28;20236;-74
2023/05/08 08:36:31;;;;;;;2.92;2.45;;;18.50;93.70;;;;;;5063853;28;20228;-73
2023/05/08 08:39:20;;;;;;;4.72;2.70;;;17.70;92.50;;;;;;5056213;28;20794;-74
2023/05/08 08:42:11;;;;;;;2.50;2.30;;;16.50;92.80;;;;;;5066111;28;20227;-73
2023/05/08 08:45:01;;;;;;;3.85;2.28;;;16.80;93.40;;;;;;5066437;28;20223;-73
2023/05/08 08:47:52;;;;;;;5.68;2.60;;;17.90;92.40;;;;;;5063481;28;20569;-73
2023/05/08 08:50:47;;;;;;;5.00;2.38;;;19.10;94.60;;;;;;5080141;28;20404;-74
2023/05/08 08:53:42;;;;;;;2.50;2.30;;;19.80;90.70;;;;;;5058415;28;20223;-74
2023/05/08 08:56:32;;;;;;;4.35;2.50;;;19.90;85.20;;;;;;5046883;28;20678;-74
2023/05/08 08:59:25;;;;;;;5.22;2.38;;;19.40;81.50;;;;;;5057275;28;21075;-74
2023/05/08 09:02:16;;;;;;;4.25;2.42;;;18.00;88.10;;;;;;5085391;28;20759;-74
2023/05/08 09:05:07;;;;;;;3.05;2.30;;;18.30;83.20;;;;;;5074364;28;20232;-74
2023/05/08 09:07:56;;;;;;;4.85;2.35;;;18.90;81.80;;;;;;5058490;28;20244;-74
2023/05/08 09:10:45;;;;;;;4.43;2.42;;;19.60;79.40;;;;;;5068578;28;20236;-74
2023/05/08 09:13:34;;;;;;;3.67;2.28;;;19.80;77.90;;;;;;5074702;28;20273;-73
2023/05/08 09:16:25;;;;;;;5.80;2.75;;;20.60;82.70;;;;;;5054773;28;20211;-75
2023/05/08 09:19:15;;;;;;;3.63;2.30;;;21.50;83.70;;;;;;5077898;28;20239;-72
2023/05/08 09:22:08;;;;;;;7.57;2.40;;;21.90;72.50;;;;;;5063265;28;20610;-73
2023/05/08 09:24:59;;;;;;;3.88;2.30;;;20.90;71.80;;;;;;5072911;28;20239;-74
2023/05/08 09:27:47;;;;;;;3.95;2.65;;;21.30;71.20;;;;;;5061706;28;20694;-73
2023/05/08 09:30:48;;;;;;;2.50;2.30;;;21.60;68.90;;;;;;5079908;28;20234;-73
2023/05/08 09:33:45;;;;;;;4.05;2.40;;;22.00;68.10;;;;;;5105335;27;20235;-74
2023/05/08 09:36:34;;;;;;;3.92;2.47;;;22.10;67.00;;;;;;5081529;28;20215;-74
2023/05/08 09:39:24;;;;;;;4.00;2.30;;;22.50;63.70;;;;;;5085447;28;20244;-74
2023/05/08 09:42:14;;;;;;;3.30;2.15;;;22.70;63.50;;;;;;5083941;28;20224;-74
2023/05/08 09:45:02;;;;;;;3.05;2.17;;;23.50;64.70;;;;;;5083852;28;20250;-74
2023/05/08 09:47:52;;;;;;;3.85;2.20;;;24.20;61.90;;;;;;5065937;28;20652;-74
2023/05/08 09:50:42;;;;;;;4.70;2.17;;;25.90;60.10;;;;;;5077364;28;20220;-73
2023/05/08 09:53:31;;;;;;;4.10;2.60;;;27.00;57.30;;;;;;5083722;28;20281;-73
2023/05/08 09:56:31;;;;;;;3.08;2.30;;;27.50;52.20;;;;;;5077914;28;20349;-74
2023/05/08 09:59:25;;;;;;;3.53;2.28;;;27.60;53.50;;;;;;5084022;28;20713;-73
2023/05/08 10:02:16;;;;;;;3.67;2.65;;;28.00;50.00;;;;;;5081229;28;20296;-73
2023/05/08 10:05:22;;;;;;;3.88;2.63;;;25.40;50.20;;;;;;5065980;28;20310;-74
2023/05/08 10:08:22;;;;;;;2.50;2.20;;;25.90;51.70;;;;;;5076416;28;21089;-74
2023/05/08 10:11:15;;;;;;;3.97;2.60;;;26.70;52.10;;;;;;5082535;28;20235;-71
2023/05/08 10:14:04;;;;;;;2.60;2.40;;;24.30;52.40;;;;;;5078276;28;20610;-73
2023/05/08 10:16:54;;;;;;;2.72;2.50;;;24.20;53.60;;;;;;5082720;28;20302;-72
2023/05/08 10:19:48;;;;;;;4.90;2.88;;;25.10;49.60;;;;;;5068210;28;20222;-73
2023/05/08 10:22:38;;;;;;;2.92;2.50;;;25.80;53.40;;;;;;5075808;28;20212;-71
2023/05/08 10:25:34;;;;;;;4.55;2.67;;;23.80;52.50;;;;;;5074828;28;20773;-73
2023/05/08 10:28:33;;;;;;;3.65;2.78;;;21.80;55.70;;;;;;5077656;28;20224;-72
2023/05/08 10:31:24;;;;;;;2.53;2.33;;;22.20;55.50;;;;;;5075770;28;20899;-72
2023/05/08 10:34:18;;;;;;;5.25;2.58;;;24.30;54.20;;;;;;5071473;28;20239;-73
2023/05/08 10:37:10;;;;;;;6.63;2.60;;;27.30;50.50;;;;;;5078137;28;20223;-73
2023/05/08 10:39:59;;;;;;;5.10;2.67;;;25.10;51.40;;;;;;5078553;27;20243;-73
2023/05/08 10:42:51;;;;;;;4.50;2.38;;;27.00;51.90;;;;;;5069325;28;20240;-73
2023/05/08 10:45:41;;;;;;;3.78;2.55;;;27.90;50.90;;;;;;5081413;28;20239;-72
2023/05/08 10:48:36;;;;;;;2.95;2.20;;;24.50;50.20;;;;;;5083486;28;20369;-73
2023/05/08 10:51:37;;;;;;;4.65;2.40;;;28.60;47.10;;;;;;5084429;28;20243;-73
2023/05/08 10:54:34;;;;;;;5.78;2.88;;;31.70;47.50;;;;;;5084154;28;20223;-74
2023/05/08 10:57:23;;;;;;;3.38;2.63;;;32.50;44.50;;;;;;5079591;28;20254;-74
2023/05/08 11:00:14;;;;;;;4.18;2.20;;;32.90;43.80;;;;;;5075768;28;21055;-74
2023/05/08 11:03:06;;;;;;;4.53;2.53;;;34.10;42.00;;;;;;5079824;28;20227;-73
2023/05/08 11:06:07;;;;;;;2.35;2.08;;;30.40;37.90;;;;;;5079566;28;20685;-74
2023/05/08 11:08:56;;;;;;;9.88;2.63;;;31.10;41.60;;;;;;5077382;28;20222;-72
2023/05/08 11:11:59;;;;;;;2.95;2.50;;;32.70;41.80;;;;;;5080851;28;20313;-72
2023/05/08 11:14:57;;;;;;;3.00;2.53;;;31.00;39.70;;;;;;5081451;28;20231;-73
2023/05/08 11:17:54;;;;;;;3.80;2.65;;;27.60;42.40;;;;;;5070951;28;20219;-72
2023/05/08 11:20:56;;;;;;;4.07;2.65;;;28.50;43.50;;;;;;5079960;28;20583;-73
2023/05/08 11:23:55;;;;;;;3.42;2.60;;;32.20;42.70;;;;;;5086306;28;20791;-72
2023/05/08 11:26:49;;;;;;;4.80;2.90;;;34.20;38.10;;;;;;5082503;28;20669;-72
2023/05/08 11:29:38;;;;;;;7.10;3.17;;;31.40;38.00;;;;;;5071131;28;20219;-73
2023/05/08 11:33:05;;;;;;;3.05;2.50;;;33.90;41.10;;;;;;5088443;28;20734;-72
2023/05/08 11:35:56;;;;;;;2.97;2.60;;;;;;;;;;5084599;28;20632;-73
2023/05/08 11:39:06;;;;;;;4.97;2.40;;;33.50;35.10;;;;;;5082326;28;20227;-73
2023/05/08 11:41:55;;;;;;;2.38;2.17;;;37.40;37.50;;;;;;5079727;28;20238;-73
2023/05/08 11:44:44;;;;;;;2.53;2.30;;;37.30;37.10;;;;;;5081625;28;20230;-73
2023/05/08 11:47:40;;;;;;;5.13;2.53;;;39.10;35.80;;;;;;5089946;28;20222;-73
2023/05/08 11:50:32;;;;;;;2.97;2.55;;;39.10;35.00;;;;;;5081605;28;20313;-73
2023/05/08 11:53:21;;;;;;;3.75;2.05;;;41.00;33.10;;;;;;5071432;28;20306;-75
2023/05/08 11:56:10;;;;;;;3.30;2.50;;;36.20;32.00;;;;;;5082881;28;20218;-72
2023/05/08 11:59:03;;;;;;;4.30;2.45;;;35.20;34.10;;;;;;5084951;28;20233;-73
2023/05/08 12:01:52;;;;;;;4.20;2.40;;;;;;;;;;5082086;28;20364;-73
2023/05/08 12:04:55;;;;;;;2.92;2.28;;;38.30;32.90;;;;;;5088777;28;20245;-73
2023/05/08 12:07:46;;;;;;;2.42;2.22;;;35.10;35.10;;;;;;5071569;28;20583;-73
2023/05/08 12:10:40;;;;;;;7.53;2.65;;;30.20;35.90;;;;;;5082635;28;20234;-74
2023/05/08 12:13:32;;;;;;;4.43;2.40;;;34.20;36.20;;;;;;5086698;28;20764;-74
2023/05/08 12:16:23;;;;;;;4.75;2.10;;;38.10;32.90;;;;;;5077696;28;20275;-71
2023/05/08 12:19:13;;;;;;;4.07;2.17;;;36.10;36.10;;;;;;5070265;28;20238;-73
2023/05/08 12:22:02;;;;;;;4.93;2.53;;;33.70;36.80;;;;;;5086160;28;20227;-73
2023/05/08 12:24:53;;;;;;;2.53;2.33;;;;;;;;;;5085716;28;20207;-70
2023/05/08 12:27:42;;;;;;;4.32;2.60;;;26.90;36.50;;;;;;5086949;28;20219;-73
2023/05/08 12:30:33;;;;;;;2.78;2.35;;;29.80;38.10;;;;;;5089577;28;20298;-72
2023/05/08 12:33:22;;;;;;;8.23;3.55;;;26.60;38.80;;;;;;5088651;28;20215;-72
2023/05/08 12:36:11;;;;;;;4.70;2.80;;;24.30;41.00;;;;;;5078297;28;20215;-72
2023/05/08 12:39:10;;;;;;;8.20;2.67;;;23.10;42.80;;;;;;5084859;28;20311;-73
2023/05/08 12:42:03;;;;;;;3.30;2.55;;;22.30;43.80;;;;;;5083510;28;20783;-73
2023/05/08 12:44:53;;;;;;;3.13;2.42;;;21.40;45.30;;;;;;5086323;28;20257;-73
2023/05/08 12:47:45;;;;;;;5.60;2.67;;;20.80;46.00;;;;;;5086053;28;20304;-73
2023/05/08 12:50:35;;;;;;;6.22;2.10;;;20.40;46.10;;;;;;5085952;28;20238;-72
2023/05/08 12:53:24;;;;;;;5.40;2.50;;;20.30;48.50;;;;;;5065839;28;20228;-74
2023/05/08 12:56:14;;;;;;;3.08;2.10;;;19.50;47.90;;;;;;5079803;28;20317;-74
2023/05/08 12:59:05;;;;;;;6.10;2.28;;;19.80;49.70;;;;;;5077747;28;20533;-74
2023/05/08 13:01:54;;;;;;;2.55;2.25;;;19.90;50.40;;;;;;5085864;28;20287;-72
2023/05/08 13:04:43;;;;;;;4.03;2.50;;;19.60;49.40;;;;;;5086292;28;20345;-73
2023/05/08 13:07:33;;;;;;;3.83;2.00;;;19.60;50.60;;;;;;5081378;28;20577;-73
2023/05/08 13:10:22;;;;;;;6.88;2.50;;;19.20;49.00;;;;;;5080281;28;20258;-75
2023/05/08 13:13:13;;;;;;;2.40;2.20;;;19.30;50.90;;;;;;5079217;28;20748;-74
2023/05/08 13:16:05;;;;;;;2.95;2.22;;;19.30;50.80;;;;;;5087405;28;20238;-73
2023/05/08 13:18:54;;;;;;;4.40;2.30;;;18.90;49.80;;;;;;5068632;28;20625;-75
2023/05/08 13:21:46;;;;;;;4.03;2.30;;;18.80;50.50;;;;;;5079250;28;20216;-75
2023/05/08 13:24:35;;;;;;;2.75;2.15;;;18.70;51.80;;;;;;5081953;28;20661;-76
2023/05/08 13:27:23;;;;;;;2.33;2.10;;;18.40;51.20;;;;;;5077859;28;20380;-71
2023/05/08 13:30:14;;;;;;;2.50;2.30;;;18.50;51.60;;;;;;5080980;28;20231;-71
2023/05/08 13:33:05;;;;;;;7.80;2.38;;;18.10;52.80;;;;;;5070669;28;20390;-74
2023/05/08 13:35:54;;;;;;;3.75;2.47;;;18.10;51.90;;;;;;5082322;28;20480;-73
2023/05/08 13:38:42;;;;;;;2.55;2.15;;;17.90;53.10;;;;;;5078609;28;20214;-75
2023/05/08 13:41:31;;;;;;;3.83;2.70;;;17.90;53.30;;;;;;5071000;28;20354;-70
2023/05/08 13:44:20;;;;;;;2.15;1.95;;;18.00;52.80;;;;;;5078108;28;20219;-72
2023/05/08 13:47:10;;;;;;;2.92;2.10;;;18.20;52.30;;;;;;5073010;28;20226;-71
2023/05/08 13:50:00;;;;;;;2.88;2.30;;;18.30;55.00;;;;;;5074443;28;20689;-70
2023/05/08 13:52:50;;;;;;;4.72;2.47;;;18.20;53.90;;;;;;5076539;28;20211;-70
2023/05/08 13:55:42;;;;;;;5.13;2.33;;;18.00;53.00;;;;;;5074904;28;20223;-70
2023/05/08 13:58:31;;;;;;;5.50;2.70;;;18.40;53.60;;;;;;5077150;28;20220;-71
2023/05/08 14:01:20;;;;;;;4.45;2.20;;;18.70;52.80;;;;;;5100725;27;20224;-71
2023/05/08 14:04:14;;;;;;;2.83;2.33;;;18.50;53.00;;;;;;5076490;28;20227;-71
2023/05/08 14:07:05;;;;;;;4.15;2.25;;;18.70;53.70;;;;;;5078304;28;20298;-72
2023/05/08 14:09:54;;;;;;;5.15;2.63;;;18.50;52.10;;;;;;5063757;28;20238;-72
2023/05/08 14:12:43;;;;;;;2.58;2.20;;;18.40;52.90;;;;;;5073492;28;20239;-71
2023/05/08 14:15:33;;;;;;;3.42;2.50;;;17.90;52.50;;;;;;5075201;28;20228;-70
2023/05/08 14:18:25;;;;;;;3.50;2.17;;;17.90;55.30;;;;;;5076044;28;20220;-71
2023/05/08 14:21:14;;;;;;;6.30;2.40;;;18.00;54.40;;;;;;5076074;28;20302;-72
2023/05/08 14:24:05;;;;;;;5.88;2.20;;;18.20;54.60;;;;;;5070723;28;20250;-71
2023/05/08 14:26:54;;;;;;;3.17;2.30;;;18.20;52.90;;;;;;5071146;28;20216;-69
2023/05/08 14:29:42;;;;;;;3.25;2.35;;;18.10;54.10;;;;;;5077889;28;20719;-70
2023/05/08 14:32:32;;;;;;;3.35;2.50;;;18.10;54.10;;;;;;5071615;28;20228;-71
2023/05/08 14:35:21;;;;;;;3.00;2.20;;;18.10;53.70;;;;;;5073273;28;20572;-72
2023/05/08 14:38:10;;;;;;;4.85;2.85;;;17.80;53.90;;;;;;5073642;28;20223;-71
2023/05/08 14:41:01;;;;;;;3.30;2.22;;;17.90;54.50;;;;;;5076092;28;20225;-72
2023/05/08 14:43:52;;;;;;;2.88;2.13;;;17.80;54.80;;;;;;5073327;28;20524;-71
2023/05/08 14:46:41;;;;;;;4.00;2.22;;;17.60;53.90;;;;;;5075725;28;20231;-71
2023/05/08 14:49:31;;;;;;;3.55;2.53;;;17.60;53.90;;;;;;5071646;28;20264;-72
2023/05/08 14:52:26;;;;;;;4.43;2.40;;;17.30;54.90;;;;;;5076291;28;20319;-71
2023/05/08 14:55:19;;;;;;;3.95;2.30;;;17.30;55.00;;;;;;5064525;28;20256;-71